Nearby METAR Reports

 

KSJC - San Jose, California, USA
Distance from station: NE 9mi, 14km
Updated: Tue, 27-Jul-2021 1:53pm PDT
Partly cloudy
Partly cloudy
 Wind from NW
Wind: NW 13 mph , 20 km/h
Temperature: 84°F , 29°C
Dew Point: 52°F , 11°C
Humidity: 33%
Barometer: 29.97 inHg , 1014.9 hPa
Clouds: Partly cloudy
Visibility: 10 miles , 16 km
Cloud details: Few Clouds 6000 ft
Partly cloudy 15000 ft
Partly cloudy 25000 ft
2021/07/27 20:53 KSJC 272053Z 32011KT 10SM FEW060 SCT150 SCT250 29/11 A2997 RMK AO2 SLP146 T02890106 56010
KRHV - San Jose/Reid, California, USA
Distance from station: ENE 12mi, 19km
Updated: Tue, 27-Jul-2021 1:50pm PDT
Partly cloudy
Partly cloudy
 Wind from WNW
Wind: WNW 9 mph , 15 km/h
Temperature: 88°F , 31°C
Dew Point: 48°F , 9°C
Humidity: 25%
Barometer: 29.97 inHg , 1014.9 hPa
Clouds: Partly cloudy
Visibility: 10 miles , 16 km
Cloud details: Partly cloudy 6000 ft
2021/07/27 20:50 KRHV 272050Z 29008KT 10SM SCT060 31/09 A2997
 
KPAO - Palo Alto, California, USA
Distance from station: NNW 14mi, 23km
Updated: Tue, 27-Jul-2021 12:47pm PDT
NOT Current
Few Clouds
Few Clouds
 Wind from NNW
Wind: NNW 12 mph , 19 km/h
Temperature: 75°F , 24°C
Dew Point: 57°F , 14°C
Humidity: 54%
Barometer: 29.99 inHg , 1015.6 hPa
Clouds: Few Clouds
Visibility: 10 miles , 16 km
Cloud details: Few Clouds 10000 ft
2021/07/27 19:47 KPAO 271947Z 33010KT 10SM FEW100 24/14 A2999
KSQL - San Carlos Airpo, California, USA
Distance from station: NW 21mi, 34km
Updated: Tue, 27-Jul-2021 1:47pm PDT
Few Clouds
Few Clouds
 Wind from NW
Wind: NW 10 mph , 17 km/h
Temperature: 77°F , 25°C
Dew Point: 57°F , 14°C
Humidity: 51%
Barometer: 29.99 inHg , 1015.6 hPa
Clouds: Few Clouds
Visibility: 10 miles , 16 km
Cloud details: Few Clouds 20000 ft
2021/07/27 20:47 KSQL 272047Z 31009KT 10SM FEW200 25/14 A2999
 
KE16 - San Martin, California, USA
Distance from station: ESE 27mi, 43km
Updated: Tue, 27-Jul-2021 2:15pm PDT
Clear
Clear
 Wind from NNW
Wind: NNW 9 mph , 15 km/h
Temperature: 93°F , 34°C
Dew Point: 48°F , 9°C
Humidity: 21%
Barometer: 29.95 inHg , 1014.2 hPa
Clouds: Clear
Visibility: 10 miles , 16 km
2021/07/27 21:15 KE16 272115Z AUTO 33008KT 10SM CLR 34/09 A2995 RMK AO2
KWVI - Watsonville, California, USA
Distance from station: SSE 27mi, 44km
Updated: Tue, 27-Jul-2021 1:53pm PDT
Clear
Clear
 Wind from W
Wind: W 8 mph , 13 km/h
Temperature: 72°F , 22°C
Dew Point: 57°F , 14°C
Humidity: 61%
Barometer: 30.02 inHg , 1016.6 hPa
Clouds: Clear
Visibility: 10 miles , 16 km
2021/07/27 20:53 KWVI 272053Z AUTO 26007KT 10SM CLR 22/14 A3002 RMK AO2 SLP165 T02170139 55002 $
 
KHWD - Hayward, California, USA
Distance from station: N 28mi, 44km
Updated: Tue, 27-Jul-2021 1:54pm PDT
Clear
Clear
 Wind from W
Wind: W 17 mph , 28 km/h
Temperature: 79°F , 26°C
Dew Point: 57°F , 14°C
Humidity: 48%
Barometer: 29.98 inHg , 1015.2 hPa
Clouds: Clear
Visibility: 10 miles , 16 km
2021/07/27 20:54 KHWD 272054Z 28015KT 10SM CLR 26/14 A2998 RMK AO2 SLP159 T02560144 58007
KSFO - San Francisco, California, USA
Distance from station: NW 30mi, 49km
Updated: Tue, 27-Jul-2021 1:56pm PDT
Partly cloudy
Partly cloudy
 Wind from NW
Wind: NW 17 mph , 28 km/h
Temperature: 73°F , 23°C
Dew Point: 55°F , 13°C
Humidity: 53%
Barometer: 29.98 inHg , 1015.2 hPa
Clouds: Partly cloudy
Visibility: 10 miles , 16 km
Cloud details: Partly cloudy 14000 ft
2021/07/27 20:56 KSFO 272056Z 31015KT 10SM SCT140 23/13 A2998 RMK A02 SLP152 T02330133
 
KHAF - Half Moon Bay, California, USA
Distance from station: WNW 31mi, 50km
Updated: Fri, 09-Jul-2021 7:35am PDT
NOT Current
Light rain, Clear
Light rain, Clear
 
Temperature: 55°F , 13°C
Dew Point: 54°F , 12°C
Humidity: 94%
Barometer: 29.91 inHg , 1012.9 hPa
Summary: Light rain
Clouds: Clear
Visibility: 4 miles , 6 km
2021/07/09 14:35 KHAF 091435Z AUTO 4SM -RA CLR 13/12 A2991 RMK AO2
KLVK - Livermore, California, USA
Distance from station: NNE 31mi, 51km
Updated: Tue, 27-Jul-2021 1:53pm PDT
Clear
Clear
 Wind from ENE
Wind: ENE 14 mph , 22 km/h, Gust: 20 mph , 31 km/h
Temperature: 95°F , 35°C
Dew Point: 39°F , 4°C
Humidity: 14%
Barometer: 29.95 inHg , 1014.2 hPa
Clouds: Clear
Visibility: 10 miles , 16 km
2021/07/27 20:53 KLVK 272053Z 07012G17KT 10SM CLR 35/04 A2995 RMK AO2 SLP137 T03500039 56012
 
KOAK - Oakland, California, USA
Distance from station: NNW 33mi, 53km
Updated: Tue, 27-Jul-2021 1:53pm PDT
Partly cloudy
Partly cloudy
 Wind from WNW
Wind: WNW 16 mph , 26 km/h
Temperature: 73°F , 23°C
Dew Point: 57°F , 14°C
Humidity: 57%
Barometer: 29.99 inHg , 1015.6 hPa
Clouds: Partly cloudy
Visibility: 9 miles , 14 km
Cloud details: Few Clouds 14000 ft
Partly cloudy 20000 ft
2021/07/27 20:53 KOAK 272053Z 30014KT 9SM FEW140 SCT200 23/14 A2999 RMK AO2 SLP155 T02330139 56007
KCVH - Hollister Muni, California, USA
Distance from station: SE 42mi, 68km
Updated: Tue, 27-Jul-2021 2:15pm PDT
Clear
Clear
 Wind from WSW
Wind: WSW 21 mph , 33 km/h
Temperature: 81°F , 27°C
Heat Index: 81°F , 27°C
Dew Point: 57°F , 14°C
Humidity: 45%
Barometer: 29.96 inHg , 1014.6 hPa
Clouds: Clear
Visibility: 10 miles , 16 km
2021/07/27 21:15 KCVH 272115Z AUTO 24018KT 10SM CLR 27/14 A2996 RMK A01
 
KSNS - Salinas, California, USA
Distance from station: SSE 48mi, 77km
Updated: Tue, 27-Jul-2021 1:53pm PDT
Clear
Clear
 Wind from NW
Wind: NW 15 mph , 24 km/h
Temperature: 72°F , 22°C
Dew Point: 57°F , 14°C
Humidity: 61%
Barometer: 30.00 inHg , 1015.9 hPa
Clouds: Clear
Visibility: 10 miles , 16 km
2021/07/27 20:53 KSNS 272053Z 31013KT 10SM CLR 22/14 A3000 RMK AO2 SLP166 T02170139 55004
KMRY - Monterey, California, USA
Distance from station: SSE 49mi, 78km
Updated: Tue, 27-Jul-2021 1:54pm PDT
Clear
Clear
 Wind from W
Wind: W 8 mph , 13 km/h
Temperature: 79°F , 26°C
Dew Point: 52°F , 11°C
Humidity: 39%
Barometer: 30.00 inHg , 1015.9 hPa
Clouds: Clear
Visibility: 10 miles , 16 km
2021/07/27 20:54 KMRY 272054Z 26007KT 10SM CLR 26/11 A3000 RMK AO2 SLP170 T02610111 57005
 
KCCR - Concord, California, USA
Distance from station: N 50mi, 81km
Updated: Tue, 27-Jul-2021 1:53pm PDT
Clear
Clear
 Wind from NW
Wind: NW 5 mph , 7 km/h
Temperature: 88°F , 31°C
Dew Point: 36°F , 2°C
Humidity: 16%
Barometer: 29.98 inHg , 1015.2 hPa
Clouds: Clear
Visibility: 10 miles , 16 km
2021/07/27 20:53 KCCR 272053Z 32004KT 10SM CLR 31/02 A2998 RMK AO2 SLP137 T03110022 58010